createdAt,value
2018-09-06T00:00:16.887Z,13.98
2018-09-06T00:01:17.197Z,13.98
2018-09-06T00:02:16.481Z,14.00
2018-09-06T00:03:16.764Z,14.01
2018-09-06T00:04:17.041Z,14.01
2018-09-06T00:05:16.325Z,14.00
2018-09-06T00:06:16.598Z,14.00
2018-09-06T00:07:16.881Z,14.00
2018-09-06T00:08:17.158Z,14.02
2018-09-06T00:09:16.432Z,14.01
2018-09-06T00:10:16.734Z,14.02
2018-09-06T00:11:16.763Z,14.01
2018-09-06T00:12:17.039Z,14.01
2018-09-06T00:13:16.625Z,14.00
2018-09-06T00:14:16.904Z,14.01
2018-09-06T00:15:17.187Z,14.00
2018-09-06T00:16:16.465Z,14.00
2018-09-06T00:17:16.748Z,13.95
2018-09-06T00:18:17.025Z,13.91
2018-09-06T00:19:16.321Z,13.91
2018-09-06T00:20:16.602Z,13.85
2018-09-06T00:21:16.659Z,13.85
2018-09-06T00:22:16.947Z,13.82
2018-09-06T00:23:16.227Z,13.82
2018-09-06T00:24:16.511Z,13.78
2018-09-06T00:25:16.797Z,13.80
2018-09-06T00:26:17.084Z,13.78
2018-09-06T00:27:16.369Z,13.84
2018-09-06T00:28:16.644Z,13.77
2018-09-06T00:29:16.914Z,13.76
2018-09-06T00:30:17.196Z,13.76
2018-09-06T00:31:16.252Z,13.71
2018-09-06T00:32:16.532Z,13.71
2018-09-06T00:33:16.821Z,13.71
2018-09-06T00:34:17.113Z,13.71
2018-09-06T00:35:16.400Z,13.68
2018-09-06T00:36:16.691Z,13.68
2018-09-06T00:37:16.976Z,13.68
2018-09-06T00:38:16.272Z,13.64
2018-09-06T00:39:16.560Z,13.63
2018-09-06T00:40:16.880Z,13.60
2018-09-06T00:41:16.900Z,13.61
2018-09-06T00:42:17.185Z,13.64
2018-09-06T00:43:16.797Z,13.60
2018-09-06T00:44:17.077Z,13.60
2018-09-06T00:45:16.363Z,13.64
2018-09-06T00:46:16.652Z,13.60
2018-09-06T00:47:16.941Z,13.54
2018-09-06T00:48:16.207Z,13.51
2018-09-06T00:49:16.527Z,13.53
2018-09-06T00:50:16.808Z,13.53
2018-09-06T00:51:16.856Z,13.51
2018-09-06T00:52:17.129Z,13.47
2018-09-06T00:53:16.397Z,13.47
2018-09-06T00:54:16.666Z,13.46
2018-09-06T00:55:16.941Z,13.46
2018-09-06T00:56:16.199Z,13.46
2018-09-06T00:57:16.470Z,13.42
2018-09-06T00:58:16.735Z,13.40
2018-09-06T00:59:16.992Z,13.42
2018-09-06T01:00:16.278Z,13.40
2018-09-06T01:01:16.310Z,13.40
2018-09-06T01:02:16.582Z,13.39
2018-09-06T01:03:16.845Z,13.37
2018-09-06T01:04:17.111Z,13.37
2018-09-06T01:05:16.379Z,13.33
2018-09-06T01:06:16.643Z,13.34
2018-09-06T01:07:16.908Z,13.33
2018-09-06T01:08:17.182Z,13.33
2018-09-06T01:09:16.449Z,13.32
2018-09-06T01:10:16.728Z,13.32
2018-09-06T01:11:16.765Z,13.26
2018-09-06T01:12:17.049Z,13.25
2018-09-06T01:13:16.320Z,13.26
2018-09-06T01:14:16.600Z,13.27
2018-09-06T01:15:16.885Z,13.27
2018-09-06T01:16:17.156Z,13.26
2018-09-06T01:17:16.428Z,13.26
2018-09-06T01:18:16.690Z,13.26
2018-09-06T01:19:16.963Z,13.23
2018-09-06T01:20:16.240Z,13.25
2018-09-06T01:21:16.277Z,13.25
2018-09-06T01:22:16.556Z,13.26
2018-09-06T01:23:16.821Z,13.25
2018-09-06T01:24:17.104Z,13.23
2018-09-06T01:25:16.369Z,13.22
2018-09-06T01:26:16.640Z,13.22
2018-09-06T01:27:16.913Z,13.21
2018-09-06T01:28:17.189Z,13.21
2018-09-06T01:29:16.476Z,13.16
2018-09-06T01:30:16.743Z,13.14
2018-09-06T01:31:16.809Z,13.15
2018-09-06T01:32:17.090Z,13.12
2018-09-06T01:33:16.364Z,13.11
2018-09-06T01:34:16.638Z,13.14
2018-09-06T01:35:16.903Z,13.12
2018-09-06T01:36:17.173Z,13.12
2018-09-06T01:37:16.440Z,13.05
2018-09-06T01:38:16.780Z,13.08
2018-09-06T01:39:17.119Z,13.04
2018-09-06T01:40:16.399Z,13.04
2018-09-06T01:41:16.433Z,13.01
2018-09-06T01:42:16.697Z,12.99
2018-09-06T01:43:16.961Z,13.05
2018-09-06T01:44:16.227Z,12.99
2018-09-06T01:45:16.500Z,12.99
2018-09-06T01:46:16.765Z,13.01
2018-09-06T01:47:17.031Z,12.98
2018-09-06T01:48:16.301Z,12.99
2018-09-06T01:49:16.576Z,13.01
2018-09-06T01:50:16.852Z,12.96
2018-09-06T01:51:16.896Z,13.02
2018-09-06T01:52:17.172Z,13.02
2018-09-06T01:53:16.436Z,13.04
2018-09-06T01:54:16.924Z,13.04
2018-09-06T01:55:17.213Z,13.04
2018-09-06T01:56:16.486Z,13.02
2018-09-06T01:57:16.757Z,13.05
2018-09-06T01:58:17.034Z,13.01
2018-09-06T01:59:16.315Z,13.02
2018-09-06T02:00:16.593Z,13.02
2018-09-06T02:01:16.650Z,12.99
2018-09-06T02:02:16.924Z,13.01
2018-09-06T02:03:17.190Z,13.01
2018-09-06T02:04:16.462Z,12.95
2018-09-06T02:05:16.719Z,12.92
2018-09-06T02:06:16.984Z,12.92
2018-09-06T02:07:16.254Z,12.98
2018-09-06T02:08:16.378Z,13.02
2018-09-06T02:09:16.644Z,13.01
2018-09-06T02:10:16.925Z,12.98
2018-09-06T02:11:16.973Z,12.99
2018-09-06T02:12:16.247Z,12.96
2018-09-06T02:13:16.515Z,12.92
2018-09-06T02:14:16.784Z,12.89
2018-09-06T02:15:17.060Z,12.88
2018-09-06T02:16:16.391Z,12.85
2018-09-06T02:17:16.659Z,12.87
2018-09-06T02:18:16.926Z,12.91
2018-09-06T02:19:17.191Z,12.87
2018-09-06T02:20:16.461Z,12.87
2018-09-06T02:21:16.523Z,12.82
2018-09-06T02:22:16.792Z,12.82
2018-09-06T02:23:17.449Z,12.84
2018-09-06T02:24:16.763Z,12.84
2018-09-06T02:25:17.103Z,12.82
2018-09-06T02:26:16.386Z,12.78
2018-09-06T02:27:16.655Z,12.79
2018-09-06T02:28:16.929Z,12.78
2018-09-06T02:29:17.224Z,12.78
2018-09-06T02:30:16.523Z,12.78
2018-09-06T02:31:16.546Z,12.78
2018-09-06T02:32:16.817Z,12.75
2018-09-06T02:33:17.090Z,12.75
2018-09-06T02:34:16.369Z,12.74
2018-09-06T02:35:16.643Z,12.68
2018-09-06T02:36:16.915Z,12.67
2018-09-06T02:37:17.193Z,12.68
2018-09-06T02:38:16.467Z,12.67
2018-09-06T02:39:16.742Z,12.68
2018-09-06T02:40:17.022Z,12.71
2018-09-06T02:41:17.064Z,12.67
2018-09-06T02:42:16.340Z,12.66
2018-09-06T02:43:16.607Z,12.68
2018-09-06T02:44:16.883Z,12.64
2018-09-06T02:45:17.179Z,12.64
2018-09-06T02:46:16.459Z,12.63
2018-09-06T02:47:16.728Z,12.58
2018-09-06T02:48:16.992Z,12.58
2018-09-06T02:49:16.253Z,12.56
2018-09-06T02:50:16.532Z,12.56
2018-09-06T02:51:16.567Z,12.54
2018-09-06T02:52:16.837Z,12.51
2018-09-06T02:53:17.100Z,12.49
2018-09-06T02:54:16.371Z,12.49
2018-09-06T02:55:16.639Z,12.51
2018-09-06T02:56:16.913Z,12.50
2018-09-06T02:57:17.197Z,12.47
2018-09-06T02:58:16.484Z,12.50
2018-09-06T02:59:16.762Z,12.50
2018-09-06T03:00:17.052Z,12.44
2018-09-06T03:01:17.067Z,12.40
2018-09-06T03:02:16.331Z,12.40
2018-09-06T03:03:16.599Z,12.41
2018-09-06T03:04:16.878Z,12.39
2018-09-06T03:05:17.163Z,12.35
2018-09-06T03:06:16.440Z,12.37
2018-09-06T03:07:16.712Z,12.35
2018-09-06T03:08:16.981Z,12.33
2018-09-06T03:09:16.247Z,12.29
2018-09-06T03:10:16.608Z,12.32
2018-09-06T03:11:16.585Z,12.32
2018-09-06T03:12:16.859Z,12.28
2018-09-06T03:13:17.121Z,12.28
2018-09-06T03:14:16.391Z,12.25
2018-09-06T03:15:16.680Z,12.25
2018-09-06T03:16:17.009Z,12.22
2018-09-06T03:17:16.275Z,12.22
2018-09-06T03:18:16.557Z,12.22
2018-09-06T03:19:16.836Z,12.16
2018-09-06T03:20:17.126Z,12.15
2018-09-06T03:21:17.424Z,12.13
2018-09-06T03:22:16.687Z,12.16
2018-09-06T03:23:16.962Z,12.13
2018-09-06T03:24:16.240Z,12.13
2018-09-06T03:25:16.508Z,12.12
2018-09-06T03:26:17.094Z,12.12
2018-09-06T03:27:16.368Z,12.09
2018-09-06T03:28:16.633Z,12.08
2018-09-06T03:29:16.902Z,12.06
2018-09-06T03:30:17.179Z,12.05
2018-09-06T03:31:16.241Z,12.06
2018-09-06T03:32:16.524Z,12.05
2018-09-06T03:33:16.805Z,12.02
2018-09-06T03:34:17.080Z,12.02
2018-09-06T03:35:16.352Z,12.01
2018-09-06T03:36:16.620Z,11.96
2018-09-06T03:37:16.887Z,11.95
2018-09-06T03:38:17.153Z,11.92
2018-09-06T03:39:16.426Z,11.93
2018-09-06T03:40:16.704Z,11.91
2018-09-06T03:41:16.750Z,11.85
2018-09-06T03:42:17.021Z,11.82
2018-09-06T03:43:16.288Z,11.82
2018-09-06T03:44:16.553Z,11.78
2018-09-06T03:45:16.824Z,11.77
2018-09-06T03:46:17.095Z,11.80
2018-09-06T03:47:16.380Z,11.77
2018-09-06T03:48:16.658Z,11.77
2018-09-06T03:49:16.915Z,11.72
2018-09-06T03:50:17.197Z,11.71
2018-09-06T03:51:16.235Z,11.67
2018-09-06T03:52:16.506Z,11.64
2018-09-06T03:53:16.775Z,11.61
2018-09-06T03:54:17.047Z,11.64
2018-09-06T03:55:16.326Z,11.63
2018-09-06T03:56:16.593Z,11.58
2018-09-06T03:57:16.875Z,11.60
2018-09-06T03:58:17.137Z,11.54
2018-09-06T03:59:16.406Z,11.51
2018-09-06T04:00:16.681Z,11.50
2018-09-06T04:01:16.725Z,11.50
2018-09-06T04:02:17.004Z,11.53
2018-09-06T04:03:16.310Z,11.55
2018-09-06T04:04:16.589Z,11.55
2018-09-06T04:05:16.856Z,11.54
2018-09-06T04:06:17.139Z,11.53
2018-09-06T04:07:16.410Z,11.53
2018-09-06T04:08:16.683Z,11.50
2018-09-06T04:09:16.949Z,11.50
2018-09-06T04:10:16.216Z,11.50
2018-09-06T04:11:16.245Z,11.51
2018-09-06T04:12:16.510Z,11.53
2018-09-06T04:13:16.783Z,11.50
2018-09-06T04:14:17.046Z,11.49
2018-09-06T04:15:16.340Z,11.44
2018-09-06T04:16:16.631Z,11.47
2018-09-06T04:17:16.910Z,11.50
2018-09-06T04:18:17.199Z,11.49
2018-09-06T04:19:16.535Z,11.47
2018-09-06T04:20:16.810Z,11.44
2018-09-06T04:21:16.884Z,11.43
2018-09-06T04:22:16.894Z,11.43
2018-09-06T04:23:17.155Z,11.47
2018-09-06T04:24:16.463Z,11.46
2018-09-06T04:25:16.938Z,11.49
2018-09-06T04:26:16.226Z,11.50
2018-09-06T04:27:16.497Z,11.54
2018-09-06T04:28:16.773Z,11.51
2018-09-06T04:29:17.039Z,11.44
2018-09-06T04:30:16.317Z,11.44
2018-09-06T04:31:16.358Z,11.47
2018-09-06T04:32:16.628Z,11.44
2018-09-06T04:33:16.910Z,11.43
2018-09-06T04:34:17.193Z,11.43
2018-09-06T04:35:16.485Z,11.42
2018-09-06T04:36:16.970Z,11.43
2018-09-06T04:37:16.395Z,11.43
2018-09-06T04:38:16.661Z,11.46
2018-09-06T04:39:16.934Z,11.43
2018-09-06T04:40:17.206Z,11.40
2018-09-06T04:41:16.266Z,11.39
2018-09-06T04:42:16.536Z,11.39
2018-09-06T04:43:16.814Z,11.40
2018-09-06T04:44:17.084Z,11.39
2018-09-06T04:45:16.365Z,11.39
2018-09-06T04:46:16.635Z,11.40
2018-09-06T04:47:16.901Z,11.42
2018-09-06T04:48:17.177Z,11.36
2018-09-06T04:49:16.449Z,11.39
2018-09-06T04:50:16.726Z,11.36
2018-09-06T04:51:16.774Z,11.34
2018-09-06T04:52:17.042Z,11.39
2018-09-06T04:53:16.321Z,11.37
2018-09-06T04:54:16.668Z,11.36
2018-09-06T04:55:17.015Z,11.36
2018-09-06T04:56:16.502Z,11.33
2018-09-06T04:57:16.776Z,11.31
2018-09-06T04:58:17.043Z,11.31
2018-09-06T04:59:16.394Z,11.33
2018-09-06T05:00:16.676Z,11.34
2018-09-06T05:01:16.721Z,11.30
2018-09-06T05:02:16.995Z,11.26
2018-09-06T05:03:16.286Z,11.25
2018-09-06T05:04:16.604Z,11.25
2018-09-06T05:05:17.066Z,11.25
2018-09-06T05:06:16.346Z,11.22
2018-09-06T05:07:16.619Z,11.22
2018-09-06T05:08:16.883Z,11.22
2018-09-06T05:09:17.154Z,11.22
2018-09-06T05:10:16.445Z,11.25
2018-09-06T05:11:16.491Z,11.23
2018-09-06T05:12:16.770Z,11.23
2018-09-06T05:13:17.045Z,11.22
2018-09-06T05:14:16.312Z,11.20
2018-09-06T05:15:16.582Z,11.22
2018-09-06T05:16:16.856Z,11.23
2018-09-06T05:17:17.144Z,11.23
2018-09-06T05:18:16.411Z,11.23
2018-09-06T05:19:16.686Z,11.23
2018-09-06T05:20:16.957Z,11.25
2018-09-06T05:21:17.008Z,11.26
2018-09-06T05:22:16.274Z,11.27
2018-09-06T05:23:16.548Z,11.30
2018-09-06T05:24:16.828Z,11.31
2018-09-06T05:25:17.103Z,11.36
2018-09-06T05:26:16.375Z,11.39
2018-09-06T05:27:16.650Z,11.37
2018-09-06T05:28:17.186Z,11.39
2018-09-06T05:29:16.444Z,11.40
2018-09-06T05:30:16.720Z,11.43
2018-09-06T05:31:16.772Z,11.44
2018-09-06T05:32:17.052Z,11.46
2018-09-06T05:33:16.318Z,11.47
2018-09-06T05:34:16.690Z,11.54
2018-09-06T05:35:17.110Z,11.57
2018-09-06T05:36:16.671Z,11.65
2018-09-06T05:37:17.186Z,11.70
2018-09-06T05:38:16.448Z,11.71
2018-09-06T05:39:16.724Z,11.75
2018-09-06T05:40:17.010Z,11.71
2018-09-06T05:41:17.045Z,11.72
2018-09-06T05:42:16.313Z,11.72
2018-09-06T05:43:16.597Z,11.75
2018-09-06T05:44:16.857Z,11.80
2018-09-06T05:45:17.136Z,11.81
2018-09-06T05:46:16.397Z,11.82
2018-09-06T05:47:16.692Z,11.88
2018-09-06T05:48:17.014Z,11.89
2018-09-06T05:49:16.297Z,11.95
2018-09-06T05:50:16.573Z,12.02
2018-09-06T05:51:16.618Z,12.19
2018-09-06T05:52:16.899Z,12.33
2018-09-06T05:53:17.182Z,12.33
2018-09-06T05:54:16.486Z,12.33
2018-09-06T05:55:16.751Z,12.32
2018-09-06T05:56:17.022Z,12.40
2018-09-06T05:57:16.294Z,12.39
2018-09-06T05:58:16.570Z,12.40
2018-09-06T05:59:17.326Z,12.47
2018-09-06T06:00:16.605Z,12.53
2018-09-06T06:01:16.656Z,12.57
2018-09-06T06:02:16.930Z,12.61
2018-09-06T06:03:17.198Z,12.66
2018-09-06T06:04:16.464Z,12.75
2018-09-06T06:05:17.165Z,12.85
2018-09-06T06:06:16.635Z,12.85
2018-09-06T06:07:16.908Z,12.85
2018-09-06T06:08:17.177Z,12.89
2018-09-06T06:09:16.462Z,12.89
2018-09-06T06:10:16.743Z,12.95
2018-09-06T06:11:16.778Z,12.96
2018-09-06T06:12:17.039Z,13.01
2018-09-06T06:13:16.329Z,13.02
2018-09-06T06:14:16.603Z,13.02
2018-09-06T06:15:16.874Z,13.02
2018-09-06T06:16:17.142Z,13.06
2018-09-06T06:17:16.414Z,13.08
2018-09-06T06:18:16.683Z,13.11
2018-09-06T06:19:16.956Z,13.18
2018-09-06T06:20:16.257Z,13.19
2018-09-06T06:21:16.263Z,13.19
2018-09-06T06:22:16.594Z,13.25
2018-09-06T06:23:16.932Z,13.29
2018-09-06T06:24:16.213Z,13.33
2018-09-06T06:25:16.507Z,13.37
2018-09-06T06:26:16.794Z,13.40
2018-09-06T06:27:17.074Z,13.43
2018-09-06T06:28:16.347Z,13.46
2018-09-06T06:29:16.619Z,13.49
2018-09-06T06:30:16.906Z,13.51
2018-09-06T06:31:16.933Z,13.53
2018-09-06T06:32:17.253Z,13.58
2018-09-06T06:33:16.692Z,13.60
2018-09-06T06:34:16.975Z,13.63
2018-09-06T06:35:16.244Z,13.67
2018-09-06T06:36:16.512Z,13.74
2018-09-06T06:37:16.801Z,13.78
2018-09-06T06:38:17.078Z,13.82
2018-09-06T06:39:16.356Z,13.88
2018-09-06T06:40:16.631Z,13.98
2018-09-06T06:41:16.675Z,14.01
2018-09-06T06:42:16.937Z,14.02
2018-09-06T06:43:16.206Z,14.07
2018-09-06T06:44:16.477Z,14.08
2018-09-06T06:45:16.755Z,14.13
2018-09-06T06:46:17.023Z,14.16
2018-09-06T06:47:16.300Z,14.20
2018-09-06T06:48:16.572Z,14.36
2018-09-06T06:49:16.839Z,14.40
2018-09-06T06:50:17.144Z,14.41
2018-09-06T06:51:17.149Z,14.50
2018-09-06T06:52:16.424Z,14.55
2018-09-06T06:53:16.729Z,14.67
2018-09-06T06:54:17.005Z,14.70
2018-09-06T06:55:16.279Z,14.77
2018-09-06T06:56:16.538Z,14.81
2018-09-06T06:57:16.809Z,14.88
2018-09-06T06:58:17.074Z,14.91
2018-09-06T06:59:16.345Z,14.98
2018-09-06T07:00:16.635Z,15.08
2018-09-06T07:01:16.688Z,15.16
2018-09-06T07:02:16.966Z,15.19
2018-09-06T07:03:16.236Z,15.21
2018-09-06T07:04:16.526Z,15.23
2018-09-06T07:05:17.024Z,15.32
2018-09-06T07:06:16.297Z,15.39
2018-09-06T07:07:16.639Z,15.46
2018-09-06T07:08:17.192Z,15.50
2018-09-06T07:09:16.469Z,15.56
2018-09-06T07:10:16.751Z,15.60
2018-09-06T07:11:16.808Z,15.76
2018-09-06T07:12:17.067Z,15.81
2018-09-06T07:13:16.330Z,15.87
2018-09-06T07:14:16.595Z,15.95
2018-09-06T07:15:16.874Z,15.97
2018-09-06T07:16:17.131Z,16.00
2018-09-06T07:17:16.403Z,16.17
2018-09-06T07:18:16.715Z,16.21
2018-09-06T07:19:16.272Z,16.19
2018-09-06T07:20:16.565Z,16.21
2018-09-06T07:21:16.592Z,16.25
2018-09-06T07:22:16.868Z,16.25
2018-09-06T07:23:17.162Z,16.32
2018-09-06T07:24:16.452Z,16.36
2018-09-06T07:25:16.738Z,16.42
2018-09-06T07:26:17.017Z,16.46
2018-09-06T07:27:16.300Z,16.53
2018-09-06T07:28:16.567Z,16.59
2018-09-06T07:29:16.836Z,16.62
2018-09-06T07:30:17.106Z,16.64
2018-09-06T07:31:17.169Z,16.68
2018-09-06T07:32:16.458Z,16.80
2018-09-06T07:33:16.734Z,16.90
2018-09-06T07:34:16.996Z,17.00
2018-09-06T07:35:16.609Z,17.03
2018-09-06T07:36:17.056Z,17.01
2018-09-06T07:37:16.326Z,17.11
2018-09-06T07:38:16.595Z,17.11
2018-09-06T07:39:16.868Z,17.19
2018-09-06T07:40:17.147Z,17.19
2018-09-06T07:41:17.227Z,17.38
2018-09-06T07:42:16.568Z,17.39
2018-09-06T07:43:16.827Z,17.38
2018-09-06T07:44:17.092Z,17.54
2018-09-06T07:45:16.363Z,17.70
2018-09-06T07:46:16.652Z,17.94
2018-09-06T07:47:16.915Z,17.93
2018-09-06T07:48:17.193Z,17.91
2018-09-06T07:49:16.470Z,18.05
2018-09-06T07:50:16.766Z,18.15
2018-09-06T07:51:16.794Z,18.27
2018-09-06T07:52:17.120Z,18.44
2018-09-06T07:53:16.448Z,18.42
2018-09-06T07:54:16.721Z,18.66
2018-09-06T07:55:17.002Z,18.70
2018-09-06T07:56:16.267Z,18.76
2018-09-06T07:57:16.529Z,18.69
2018-09-06T07:58:16.794Z,18.72
2018-09-06T07:59:17.053Z,18.82
2018-09-06T08:00:16.336Z,18.79
2018-09-06T08:01:16.377Z,18.83
2018-09-06T08:02:16.652Z,18.82
2018-09-06T08:03:16.927Z,18.86
2018-09-06T08:04:17.200Z,18.97
2018-09-06T08:05:16.465Z,18.90
2018-09-06T08:06:16.730Z,18.93
2018-09-06T08:07:16.993Z,18.97
2018-09-06T08:08:16.257Z,18.97
2018-09-06T08:09:16.528Z,19.01
2018-09-06T08:10:16.803Z,19.10
2018-09-06T08:11:16.858Z,19.17
2018-09-06T08:12:17.135Z,19.08
2018-09-06T08:13:16.411Z,19.31
2018-09-06T08:14:16.689Z,19.30
2018-09-06T08:15:16.962Z,19.34
2018-09-06T08:16:16.235Z,19.39
2018-09-06T08:17:16.507Z,19.42
2018-09-06T08:18:16.770Z,19.39
2018-09-06T08:19:17.035Z,19.42
2018-09-06T08:20:16.311Z,19.69
2018-09-06T08:21:16.380Z,19.89
2018-09-06T08:22:16.660Z,20.01
2018-09-06T08:23:16.930Z,19.93
2018-09-06T08:24:16.313Z,19.90
2018-09-06T08:25:16.658Z,19.97
2018-09-06T08:26:16.921Z,19.99
2018-09-06T08:27:17.200Z,20.06
2018-09-06T08:28:16.472Z,20.01
2018-09-06T08:29:16.740Z,20.18
2018-09-06T08:30:17.007Z,20.17
2018-09-06T08:31:17.075Z,20.21
2018-09-06T08:32:16.380Z,20.32
2018-09-06T08:33:16.652Z,20.42
2018-09-06T08:34:16.917Z,20.42
2018-09-06T08:35:17.180Z,20.46
2018-09-06T08:36:16.444Z,20.45
2018-09-06T08:37:16.717Z,20.44
2018-09-06T08:38:16.985Z,20.45
2018-09-06T08:39:16.254Z,20.55
2018-09-06T08:40:16.540Z,20.55
2018-09-06T08:41:16.572Z,20.55
2018-09-06T08:42:16.833Z,20.72
2018-09-06T08:43:17.098Z,20.75
2018-09-06T08:44:16.374Z,20.80
2018-09-06T08:45:16.711Z,20.99
2018-09-06T08:46:17.036Z,20.93
2018-09-06T08:47:16.316Z,20.96
2018-09-06T08:48:16.588Z,20.93
2018-09-06T08:49:16.865Z,21.09
2018-09-06T08:50:17.157Z,21.20
2018-09-06T08:51:17.172Z,21.25
2018-09-06T08:52:16.498Z,21.27
2018-09-06T08:53:16.805Z,21.23
2018-09-06T08:54:17.093Z,21.41
2018-09-06T08:55:16.380Z,21.37
2018-09-06T08:56:16.649Z,21.33
2018-09-06T08:57:16.911Z,21.38
2018-09-06T08:58:17.228Z,21.51
2018-09-06T08:59:16.544Z,21.64
2018-09-06T09:00:16.813Z,21.57
2018-09-06T09:01:16.865Z,21.64
2018-09-06T09:02:17.270Z,21.64
2018-09-06T09:03:16.951Z,21.68
2018-09-06T09:04:16.425Z,21.72
2018-09-06T09:05:16.714Z,21.76
2018-09-06T09:06:16.989Z,21.91
2018-09-06T09:07:16.260Z,21.83
2018-09-06T09:08:16.547Z,21.86
2018-09-06T09:09:16.862Z,22.00
2018-09-06T09:10:17.150Z,21.93
2018-09-06T09:11:17.177Z,22.00
2018-09-06T09:12:16.449Z,22.05
2018-09-06T09:13:16.842Z,22.05
2018-09-06T09:14:16.259Z,22.07
2018-09-06T09:15:16.539Z,22.23
2018-09-06T09:16:16.958Z,22.45
2018-09-06T09:17:16.336Z,22.43
2018-09-06T09:18:16.635Z,22.40
2018-09-06T09:19:17.095Z,22.51
2018-09-06T09:20:16.389Z,22.57
2018-09-06T09:21:16.424Z,22.54
2018-09-06T09:22:16.713Z,22.61
2018-09-06T09:23:17.091Z,22.67
2018-09-06T09:24:16.358Z,22.57
2018-09-06T09:25:16.632Z,22.51
2018-09-06T09:26:16.921Z,22.55
2018-09-06T09:27:17.201Z,22.54
2018-09-06T09:28:16.469Z,22.53
2018-09-06T09:29:16.728Z,22.57
2018-09-06T09:30:17.002Z,22.53
2018-09-06T09:31:17.049Z,22.45
2018-09-06T09:32:16.326Z,22.43
2018-09-06T09:33:16.604Z,22.64
2018-09-06T09:34:16.870Z,22.57
2018-09-06T09:35:17.141Z,22.65
2018-09-06T09:36:16.412Z,22.71
2018-09-06T09:37:16.680Z,22.74
2018-09-06T09:38:16.955Z,22.82
2018-09-06T09:39:16.226Z,22.79
2018-09-06T09:40:16.494Z,22.75
2018-09-06T09:41:16.550Z,22.71
2018-09-06T09:42:16.821Z,22.75
2018-09-06T09:43:17.103Z,22.61
2018-09-06T09:44:16.472Z,22.78
2018-09-06T09:45:16.763Z,22.85
2018-09-06T09:48:16.405Z,22.76
2018-09-06T09:49:16.687Z,22.81
2018-09-06T09:51:17.014Z,22.99
2018-09-06T09:52:16.279Z,22.86
2018-09-06T09:53:16.661Z,23.02
2018-09-06T09:54:16.932Z,22.96
2018-09-06T09:55:16.213Z,23.19
2018-09-06T09:56:16.487Z,23.37
2018-09-06T09:57:16.761Z,23.43
2018-09-06T09:58:17.034Z,23.40
2018-09-06T09:59:16.315Z,23.43
2018-09-06T10:00:16.615Z,23.53
2018-09-06T10:01:16.634Z,23.60
2018-09-06T10:02:16.902Z,23.54
2018-09-06T10:03:17.185Z,23.50
2018-09-06T10:04:16.459Z,23.32
2018-09-06T10:05:16.723Z,23.32
2018-09-06T10:06:17.049Z,23.43
2018-09-06T10:07:16.353Z,23.53
2018-09-06T10:08:16.621Z,23.62
2018-09-06T10:09:16.886Z,23.68
2018-09-06T10:10:17.166Z,23.61
2018-09-06T10:11:16.210Z,23.61
2018-09-06T10:12:16.490Z,23.77
2018-09-06T10:13:16.754Z,23.89
2018-09-06T10:14:17.018Z,23.84
2018-09-06T10:15:16.304Z,23.85
2018-09-06T10:16:16.568Z,23.88
2018-09-06T10:17:16.885Z,23.92
2018-09-06T10:18:16.217Z,23.89
2018-09-06T10:19:16.699Z,24.04
2018-09-06T10:20:16.961Z,24.08
2018-09-06T10:21:17.018Z,24.16
2018-09-06T10:22:16.293Z,24.12
2018-09-06T10:23:16.563Z,24.23
2018-09-06T10:24:16.840Z,24.17
2018-09-06T10:25:17.111Z,24.12
2018-09-06T10:26:16.380Z,23.99
2018-09-06T10:27:16.644Z,23.95
2018-09-06T10:28:16.914Z,23.91
2018-09-06T10:29:17.198Z,23.98
2018-09-06T10:30:16.472Z,23.98
2018-09-06T10:31:16.532Z,23.95
2018-09-06T10:32:16.793Z,24.06
2018-09-06T10:33:17.060Z,24.04
2018-09-06T10:34:16.338Z,23.99
2018-09-06T10:35:16.704Z,23.89
2018-09-06T10:36:17.013Z,24.06
2018-09-06T10:37:16.279Z,24.15
2018-09-06T10:38:16.541Z,23.87
2018-09-06T10:39:16.853Z,23.88
2018-09-06T10:40:17.157Z,24.01
2018-09-06T10:41:16.224Z,23.95
2018-09-06T10:42:16.495Z,24.05
2018-09-06T10:43:16.751Z,24.27
2018-09-06T10:44:17.011Z,24.33
2018-09-06T10:45:16.286Z,24.36
2018-09-06T10:46:16.545Z,24.27
2018-09-06T10:47:16.820Z,24.27
2018-09-06T10:48:17.087Z,24.27
2018-09-06T10:49:16.366Z,24.38
2018-09-06T10:50:16.638Z,24.54
2018-09-06T10:51:16.695Z,24.70
2018-09-06T10:52:16.970Z,24.57
2018-09-06T10:53:16.235Z,24.78
2018-09-06T10:54:16.507Z,24.53
2018-09-06T10:55:16.775Z,24.70
2018-09-06T10:56:17.042Z,24.70
2018-09-06T10:57:16.318Z,24.74
2018-09-06T10:58:16.581Z,24.91
2018-09-06T10:59:16.846Z,24.92
2018-09-06T11:00:17.143Z,24.98
2018-09-06T11:01:17.170Z,25.26
2018-09-06T11:02:16.438Z,25.25
2018-09-06T11:03:16.714Z,25.21
2018-09-06T11:04:16.978Z,25.35
2018-09-06T11:05:16.244Z,25.32
2018-09-06T11:06:16.507Z,25.25
2018-09-06T11:07:16.787Z,25.28
2018-09-06T11:08:17.079Z,25.40
2018-09-06T11:09:16.481Z,25.42
2018-09-06T11:10:16.754Z,25.56
2018-09-06T11:11:16.804Z,25.57
2018-09-06T11:12:17.075Z,25.59
2018-09-06T11:13:16.356Z,25.76
2018-09-06T11:14:16.649Z,25.79
2018-09-06T11:15:16.946Z,25.83
2018-09-06T11:16:16.217Z,25.73
2018-09-06T11:17:16.488Z,25.50
2018-09-06T11:18:16.764Z,25.67
2018-09-06T11:19:17.024Z,25.62
2018-09-06T11:20:16.292Z,25.57
2018-09-06T11:21:16.515Z,25.62
2018-09-06T11:22:17.350Z,25.57
2018-09-06T11:23:16.313Z,25.57
2018-09-06T11:24:16.581Z,25.60
2018-09-06T11:25:16.854Z,25.67
2018-09-06T11:26:17.139Z,25.67
2018-09-06T11:27:16.400Z,25.73
2018-09-06T11:28:16.671Z,25.74
2018-09-06T11:29:16.938Z,25.57
2018-09-06T11:30:17.206Z,25.35
2018-09-06T11:31:16.250Z,25.37
2018-09-06T11:32:16.812Z,25.50
2018-09-06T11:33:17.144Z,25.64
2018-09-06T11:34:16.582Z,25.83
2018-09-06T11:35:16.849Z,25.79
2018-09-06T11:36:17.126Z,26.04
2018-09-06T11:37:16.400Z,26.07
2018-09-06T11:38:16.665Z,25.90
2018-09-06T11:39:16.942Z,25.80
2018-09-06T11:40:16.245Z,25.77
2018-09-06T11:41:16.258Z,25.81
2018-09-06T11:42:16.531Z,25.81
2018-09-06T11:43:16.799Z,25.84
2018-09-06T11:44:17.067Z,25.91
2018-09-06T11:45:16.343Z,25.87
2018-09-06T11:46:16.611Z,25.91
2018-09-06T11:47:16.923Z,26.05
2018-09-06T11:48:16.641Z,25.97
2018-09-06T11:49:16.903Z,25.95
2018-09-06T11:50:17.184Z,26.01
2018-09-06T11:51:16.226Z,25.91
2018-09-06T11:52:16.521Z,25.98
2018-09-06T11:53:16.788Z,26.04
2018-09-06T11:54:17.060Z,26.00
2018-09-06T11:55:16.325Z,25.90
2018-09-06T11:56:16.608Z,25.80
2018-09-06T11:57:16.898Z,25.52
2018-09-06T11:58:17.171Z,25.56
2018-09-06T11:59:16.441Z,25.67
2018-09-06T12:00:16.719Z,25.69
2018-09-06T12:01:16.810Z,25.74
2018-09-06T12:02:17.138Z,25.70
2018-09-06T12:03:16.750Z,25.64
2018-09-06T12:04:17.018Z,25.80
2018-09-06T12:05:16.307Z,25.81
2018-09-06T12:06:16.651Z,25.84
2018-09-06T12:07:17.052Z,25.85
2018-09-06T12:08:16.320Z,26.02
2018-09-06T12:09:16.584Z,26.04
2018-09-06T12:10:16.874Z,25.93
2018-09-06T12:11:16.885Z,25.90
2018-09-06T12:12:17.163Z,25.80
2018-09-06T12:13:16.442Z,25.74
2018-09-06T12:14:16.717Z,26.12
2018-09-06T12:15:16.990Z,26.04
2018-09-06T12:16:16.250Z,25.74
2018-09-06T12:17:16.529Z,25.76
2018-09-06T12:18:16.800Z,25.84
2018-09-06T12:19:17.079Z,26.01
2018-09-06T12:20:16.432Z,26.04
2018-09-06T12:21:16.454Z,26.15
2018-09-06T12:22:16.739Z,26.09
2018-09-06T12:23:17.014Z,26.29
2018-09-06T12:24:16.284Z,26.34
2018-09-06T12:25:16.606Z,26.34
2018-09-06T12:26:16.899Z,26.32
2018-09-06T12:27:17.179Z,26.21
2018-09-06T12:28:16.453Z,26.20
2018-09-06T12:29:16.745Z,26.24
2018-09-06T12:30:17.034Z,26.18
2018-09-06T12:31:17.085Z,26.12
2018-09-06T12:32:16.359Z,26.13
2018-09-06T12:33:16.734Z,26.11
2018-09-06T12:34:17.495Z,26.08
2018-09-06T12:35:16.770Z,25.97
2018-09-06T12:36:17.034Z,25.79
2018-09-06T12:37:16.302Z,25.83
2018-09-06T12:38:16.574Z,25.87
2018-09-06T12:39:16.849Z,25.90
2018-09-06T12:40:17.125Z,26.05
2018-09-06T12:41:17.182Z,26.12
2018-09-06T12:42:16.450Z,26.09
2018-09-06T12:43:16.718Z,26.22
2018-09-06T12:44:16.986Z,26.40
2018-09-06T12:45:16.262Z,26.38
2018-09-06T12:46:16.531Z,26.33
2018-09-06T12:47:16.811Z,26.38
2018-09-06T12:48:17.081Z,26.38
2018-09-06T12:49:16.347Z,26.38
2018-09-06T12:50:16.640Z,26.65
2018-09-06T12:51:16.677Z,26.45
2018-09-06T12:52:16.945Z,26.44
2018-09-06T12:53:16.216Z,26.27
2018-09-06T12:54:16.491Z,26.27
2018-09-06T12:55:16.757Z,26.05